Alexis Collette

Alexis Collette

Statistiques 2026

  • Courses courues : 1086
  • Nb de victoires : 120
  • Nb de places : 338
  • Écart gagnant : 3
  • Réussite à la gagne : 11%
  • Réussite à la place : 31%
Musique : 0a 2m 0a 1a 5m 0a 0a 1m Aa Da 2a 9a Da Dm Aa 3a 7a Da
DateRangCatégorieAlloc.Dist.HippodromeChevalRed. KmSpé.
20/05/26 3 Trot 27 000€ 2 700m Le Croise Laroche Latino Pura Vida 1'14"1 Attelé lire

Très vite à la pointe du combat, a longtemps fait illusion pour le succès avant de s'incliner pour finir.

20/05/26 0 Trot 23 000€ 2 700m Le Croise Laroche Magie de Chahains Attelé
20/05/26 1 Trot 35 000€ 2 850m Le Croise Laroche Jus de Fruit 1'13"6 Monté
20/05/26 7 Trot 30 000€ 2 850m Le Croise Laroche Dayak 1'13"5 Attelé lire

Après avoir attendu dans la deuxième partie du peloton, n'a pas mal conclu.

25/05/22 7 Trot 26 000€ 2 700m Le Croise Laroche Habibi 1'14"7 Attelé
25/05/22 D Trot 29 000€ 2 825m Le Croise Laroche Frisky Black Attelé lire

A été sanctionné dans la ligne opposée alors qu'il suivait les animateurs.

25/05/22 4 Trot 33 000€ 2 850m Le Croise Laroche Fiaschetto 1'13"8 Monté
09/10/22 D Trot 23 000€ 2 700m Le Croise Laroche Happy du Parc Attelé
09/10/22 D Trot 30 000€ 2 850m Le Croise Laroche Ialto d'hertals Attelé
09/10/22 9 Trot 38 000€ 2 700m Le Croise Laroche Danseur Baroque 1'15"3 Attelé
09/10/22 3 Trot 20 000€ 2 700m Le Croise Laroche Inductif 1'17"9 Attelé
09/10/22 A Trot 23 000€ 2 700m Le Croise Laroche Jazz de Blary Attelé
09/10/22 D Trot 29 000€ 2 825m Le Croise Laroche Fine du Colombier Monté
04/11/22 D Trot 18 000€ 2 825m Le Croise Laroche Jarl Rogeirr Monté
04/11/22 D Trot 30 000€ 2 825m Le Croise Laroche Joule de la Fye Attelé
04/11/22 1 Trot 20 000€ 2 700m Le Croise Laroche Illico des Baux 1'14"2 Attelé
04/11/22 4 Trot 33 000€ 2 700m Le Croise Laroche Furious Wind 1'13"2 Attelé
08/05/22 D Trot 16 000€ 2 300m Le Mans Jove Fougeray Monté
08/05/22 5 Trot 13 000€ 2 300m Le Mans Joulia du Chene 1'18"7 Attelé
08/05/22 8 Trot 13 000€ 2 300m Le Mans Joie du Garden 1'19"6 Attelé
08/05/22 1 Trot 14 000€ 2 300m Le Mans Jasmin Precieux 1'15"6 Attelé
08/05/22 D Trot 14 000€ 2 950m Le Mans Ilio Mannetot Attelé
08/05/22 3 Trot 21 000€ 2 950m Le Mans Flambant du Gers 1'16"6 Attelé
08/05/22 4 Trot 18 000€ 2 975m Le Mans Hamyot de Bomo 1'15"9 Attelé
30/07/22 D Trot 20 000€ 2 950m Le Mans Goldenboy de Chenu Attelé
30/07/22 0 Trot 28 000€ 2 950m Le Mans Fanon des Forges Attelé
30/07/22 8 Trot 33 000€ 2 950m Le Mans Dreamer Angele 1'15"7 Monté
30/07/22 2 Trot 19 000€ 2 950m Le Mans Initiale Castelets 1'16"5 Monté
16/12/24 3 Trot 20 000€ 2 975m Le Mans Kiviana 1'16"3 Monté
16/12/24 D Trot 20 000€ 2 200m Le Mans Lefort Fligny Attelé
16/12/24 7 Trot 23 000€ 2 975m Le Mans Jiminy Cricket 1'15"7 Monté
16/12/24 4 Trot 17 500€ 2 975m Le Mans Kanta Emji 1'15"5 Attelé
16/12/24 7 Trot 30 000€ 2 975m Le Mans Fergie Highland 1'14"6 Attelé
15/12/25 0 Trot 20 000€ 2 975m Le Mans Looping du Perre Monté
15/12/25 D Trot 20 000€ 2 200m Le Mans Mimi d'Auvillier Attelé
15/12/25 D Trot 20 000€ 2 200m Le Mans Milzano du Bossu Attelé
15/12/25 1 Trot 17 500€ 2 975m Le Mans Laerte du Goutier 1'14"7 Attelé
15/12/25 7 Trot 30 000€ 2 950m Le Mans Hypso des Caillons 1'14"6 Attelé
14/12/15 8 Trot 28 000€ 2 950m Le Mans Urgah du Rib 1'15"5 Attelé lire

Après avoir attendu en retrait, a conclu de bonne manière mais, sans véritablement inquiéter les premiers.

19/12/16 D Trot 13 000€ 2 300m Le Mans Edison la Mesange Monté lire

A été sanctionné aux tribunes.

15/04/21 D Trot 19 000€ 2 950m Le Mans Gonzalo du Bossu Monté
15/04/21 1 Trot 20 000€ 2 200m Le Mans Ice Tea 1'17"4 Attelé
31/07/21 D Trot 17 000€ 2 950m Le Mans Helen des Oubeaux Monté
24/11/21 1 Trot 17 000€ 2 975m Le Mans Handy Man 1'14"3 Attelé
24/11/21 D Trot 30 000€ 2 950m Le Mans Full Of Charm Monté
20/12/21 D Trot 17 000€ 2 950m Le Mans Hallo Well Monté
20/12/21 D Trot 19 000€ 2 950m Le Mans Fleur Champetre Monté
20/12/21 D Trot 26 000€ 2 975m Le Mans Detroit Ace Attelé
14/04/22 0 Trot 19 000€ 2 850m Le Mans Incredible Talent Attelé
08/05/19 4 Trot 15 000€ 2 300m Le Mans Geek des Charrons 1'18"7 Monté